首页
METAR-TAF:

METAR-TAF

机场 :

埃斯比约, 丹麦

纬度: 55-32N, 经度: 008-34E, 海拔: 30米

当前天气观测

该预报发布于39分钟前的07:50 UTC
风速14节,风向西
温度 7°C
湿度 87%
气压 1016 hPa
能见度10公里或以上

METAR: EKEB 010750Z AUTO 28014KT 9999 BKN012/// BKN055/// 07/05 Q1016

时间: 10:29 (08:29 UTC)

预报

该预报发布于3小时和29分钟前的05:00 UTC
预报有效从01日的 06点(UTC)到 01日的 15点(UTC)
风速15节,风向西
能见度10公里或以上
多云层高于2000英尺
短暂存在
从 01日的 06点(UTC)到 01日的 15点(UTC)
多云层高于1000英尺
散云层高于1800英尺, 塔状积云.

TAF: EKEB 010500Z 0106/0115 28015KT 9999 BKN020 TEMPO 0106/0115 BKN010 SCT018TCU

超过4000个机场的气象观测和天气预报(METAR&TAF报告)。

可查询的气象台以黄色和红色小点在地图上表示。

将鼠标移到小点上方,可查看气象台名称。

然后点击查看天气观测和预报。

如需切换地图:点击带黑十字的绿色按钮放大地图;点击带横线的绿色按钮缩小地图;或者点击绿色箭头查看邻近地区的地图。


METAR-TAF: